createdAt,value
2023-04-04T00:00:24.167Z,65.55
2023-04-04T00:01:24.239Z,62.87
2023-04-04T00:02:24.336Z,59.79
2023-04-04T00:03:24.499Z,60.66
2023-04-04T00:04:24.357Z,64.41
2023-04-04T00:05:24.399Z,61.64
2023-04-04T00:06:24.460Z,57.09
2023-04-04T00:07:24.505Z,58.98
2023-04-04T00:08:24.577Z,59.24
2023-04-04T00:09:24.612Z,65.89
2023-04-04T00:10:24.661Z,67.64
2023-04-04T00:11:24.726Z,70.51
2023-04-04T00:12:27.695Z,65.78
2023-04-04T00:13:24.761Z,64.67
2023-04-04T00:14:24.759Z,61.41
2023-04-04T00:15:24.756Z,58.70
2023-04-04T00:16:24.771Z,62.66
2023-04-04T00:17:24.744Z,60.74
2023-04-04T00:18:24.745Z,62.84
2023-04-04T00:19:24.747Z,62.40
2023-04-04T00:20:24.741Z,62.37
2023-04-04T00:21:24.770Z,59.50
2023-04-04T00:22:24.715Z,57.66
2023-04-04T00:23:24.702Z,58.27
2023-04-04T00:24:24.701Z,65.60
2023-04-04T00:25:24.718Z,64.22
2023-04-04T00:26:24.699Z,60.06
2023-04-04T00:27:24.689Z,60.16
2023-04-04T00:28:24.666Z,59.72
2023-04-04T00:29:24.672Z,57.54
2023-04-04T00:30:24.646Z,59.99
2023-04-04T00:31:24.715Z,57.39
2023-04-04T00:32:24.673Z,52.32
2023-04-04T00:33:24.652Z,50.36
2023-04-04T00:34:24.640Z,53.07
2023-04-04T00:35:24.639Z,54.04
2023-04-04T00:36:24.637Z,49.20
2023-04-04T00:37:24.595Z,48.58
2023-04-04T00:38:24.610Z,51.42
2023-04-04T00:39:24.581Z,55.42
2023-04-04T00:40:24.619Z,58.07
2023-04-04T00:41:24.602Z,50.68
2023-04-04T00:42:24.573Z,52.74
2023-04-04T00:43:24.604Z,43.99
2023-04-04T00:44:24.688Z,50.89
2023-04-04T00:45:24.749Z,53.21
2023-04-04T00:46:24.798Z,50.63
2023-04-04T00:47:26.440Z,50.79
2023-04-04T00:48:24.900Z,54.26
2023-04-04T00:49:24.941Z,46.95
2023-04-04T00:50:24.970Z,43.86
2023-04-04T00:51:25.078Z,40.77
2023-04-04T00:52:25.128Z,38.27
2023-04-04T00:53:25.165Z,39.50
2023-04-04T00:54:25.175Z,44.01
2023-04-04T00:55:25.220Z,38.16
2023-04-04T00:56:25.229Z,38.63
2023-04-04T00:57:25.277Z,34.62
2023-04-04T00:58:25.333Z,35.14
2023-04-04T00:59:25.355Z,41.70
2023-04-04T01:00:25.404Z,38.63
2023-04-04T01:01:25.463Z,41.21
2023-04-04T01:02:25.503Z,40.20
2023-04-04T01:03:25.578Z,38.67
2023-04-04T01:04:25.646Z,43.80
2023-04-04T01:05:25.666Z,36.52
2023-04-04T01:06:25.688Z,36.17
2023-04-04T01:07:25.732Z,36.51
2023-04-04T01:08:25.788Z,37.42
2023-04-04T01:09:25.865Z,43.30
2023-04-04T01:10:25.925Z,44.06
2023-04-04T01:11:25.981Z,41.29
2023-04-04T01:12:26.060Z,40.26
2023-04-04T01:13:26.078Z,38.21
2023-04-04T01:14:26.156Z,32.48
2023-04-04T01:15:26.192Z,42.74
2023-04-04T01:16:26.281Z,36.37
2023-04-04T01:17:26.299Z,39.45
2023-04-04T01:18:26.311Z,36.91
2023-04-04T01:19:26.363Z,40.42
2023-04-04T01:20:26.418Z,38.31
2023-04-04T01:21:26.431Z,44.58
2023-04-04T01:22:26.429Z,38.83
2023-04-04T01:23:26.502Z,38.61
2023-04-04T01:24:26.520Z,34.79
2023-04-04T01:25:26.568Z,37.95
2023-04-04T01:26:26.646Z,35.83
2023-04-04T01:27:26.663Z,38.03
2023-04-04T01:28:26.675Z,36.84
2023-04-04T01:29:26.703Z,41.90
2023-04-04T01:30:26.766Z,40.66
2023-04-04T01:31:27.455Z,39.00
2023-04-04T01:32:26.805Z,38.64
2023-04-04T01:33:26.827Z,36.86
2023-04-04T01:34:26.898Z,33.46
2023-04-04T01:35:26.939Z,35.52
2023-04-04T01:36:27.034Z,32.76
2023-04-04T01:37:27.003Z,32.89
2023-04-04T01:38:27.030Z,32.86
2023-04-04T01:39:27.062Z,36.62
2023-04-04T01:40:27.094Z,34.23
2023-04-04T01:41:27.128Z,35.35
2023-04-04T01:42:27.160Z,34.94
2023-04-04T01:43:27.176Z,35.73
2023-04-04T01:44:27.209Z,35.21
2023-04-04T01:45:27.248Z,37.52
2023-04-04T01:46:27.333Z,38.47
2023-04-04T01:47:27.315Z,37.08
2023-04-04T01:48:27.309Z,41.33
2023-04-04T01:49:27.360Z,41.01
2023-04-04T01:50:27.348Z,34.45
2023-04-04T01:51:27.376Z,33.53
2023-04-04T01:52:27.395Z,39.57
2023-04-04T01:53:27.440Z,36.90
2023-04-04T01:54:27.448Z,35.74
2023-04-04T01:55:27.487Z,36.62
2023-04-04T01:56:27.494Z,34.70
2023-04-04T01:57:27.518Z,38.27
2023-04-04T01:58:27.590Z,33.36
2023-04-04T01:59:27.721Z,34.58
2023-04-04T02:00:27.615Z,37.97
2023-04-04T02:01:27.641Z,37.98
2023-04-04T02:02:27.697Z,38.43
2023-04-04T02:03:27.662Z,36.50
2023-04-04T02:04:27.770Z,39.42
2023-04-04T02:05:27.731Z,42.93
2023-04-04T02:06:27.782Z,37.86
2023-04-04T02:07:27.794Z,42.08
2023-04-04T02:08:27.830Z,36.11
2023-04-04T02:09:27.920Z,39.96
2023-04-04T02:10:27.932Z,39.70
2023-04-04T02:11:27.928Z,40.21
2023-04-04T02:12:27.985Z,38.82
2023-04-04T02:13:27.987Z,43.07
2023-04-04T02:14:28.004Z,44.91
2023-04-04T02:15:28.037Z,41.12
2023-04-04T02:16:28.045Z,46.86
2023-04-04T02:17:28.050Z,44.53
2023-04-04T02:18:28.041Z,49.12
2023-04-04T02:19:28.101Z,47.48
2023-04-04T02:20:28.132Z,45.48
2023-04-04T02:21:28.147Z,44.34
2023-04-04T02:22:28.178Z,44.63
2023-04-04T02:23:28.224Z,47.03
2023-04-04T02:24:28.257Z,45.76
2023-04-04T02:25:28.306Z,47.01
2023-04-04T02:26:28.310Z,50.79
2023-04-04T02:27:28.351Z,50.22
2023-04-04T02:28:28.397Z,52.41
2023-04-04T02:29:28.387Z,51.83
2023-04-04T02:30:28.423Z,48.42
2023-04-04T02:31:28.441Z,47.35
2023-04-04T02:32:28.485Z,53.19
2023-04-04T02:33:28.505Z,51.48
2023-04-04T02:34:28.538Z,50.79
2023-04-04T02:35:28.572Z,52.05
2023-04-04T02:36:28.593Z,51.75
2023-04-04T02:37:28.636Z,51.16
2023-04-04T02:38:28.690Z,51.94
2023-04-04T02:39:28.654Z,53.07
2023-04-04T02:40:28.726Z,57.39
2023-04-04T02:41:28.766Z,57.58
2023-04-04T02:42:28.805Z,58.36
2023-04-04T02:43:28.816Z,61.73
2023-04-04T02:44:28.847Z,57.70
2023-04-04T02:45:28.870Z,57.83
2023-04-04T02:46:28.921Z,57.64
2023-04-04T02:47:28.902Z,57.30
2023-04-04T02:48:28.889Z,57.57
2023-04-04T02:49:28.927Z,60.26
2023-04-04T02:50:28.904Z,57.40
2023-04-04T02:51:28.934Z,59.15
2023-04-04T02:52:28.942Z,57.87
2023-04-04T02:53:28.905Z,58.75
2023-04-04T02:54:28.930Z,56.00
2023-04-04T02:55:28.938Z,55.02
2023-04-04T02:56:28.934Z,60.74
2023-04-04T02:57:28.921Z,59.73
2023-04-04T02:58:28.948Z,61.98
2023-04-04T02:59:29.072Z,63.88
2023-04-04T03:00:28.967Z,63.47
2023-04-04T03:01:29.017Z,61.50
2023-04-04T03:02:29.061Z,60.71
2023-04-04T03:03:29.110Z,60.35
2023-04-04T03:04:28.993Z,61.52
2023-04-04T03:05:29.004Z,62.11
2023-04-04T03:06:29.009Z,64.85
2023-04-04T03:07:29.006Z,64.70
2023-04-04T03:08:29.015Z,67.15
2023-04-04T03:09:29.012Z,68.79
2023-04-04T03:10:29.047Z,66.08
2023-04-04T03:11:29.040Z,65.37
2023-04-04T03:12:29.033Z,67.69
2023-04-04T03:13:29.065Z,66.04
2023-04-04T03:14:29.110Z,62.28
2023-04-04T03:15:29.108Z,62.21
2023-04-04T03:16:29.131Z,65.22
2023-04-04T03:17:29.149Z,73.31
2023-04-04T03:18:29.190Z,71.20
2023-04-04T03:19:29.168Z,70.63
2023-04-04T03:20:29.214Z,69.71
2023-04-04T03:21:29.222Z,69.43
2023-04-04T03:22:29.250Z,69.48
2023-04-04T03:23:29.248Z,71.28
2023-04-04T03:24:29.242Z,70.96
2023-04-04T03:25:29.274Z,68.82
2023-04-04T03:26:29.532Z,70.89
2023-04-04T03:27:29.313Z,73.88
2023-04-04T03:28:29.336Z,72.09
2023-04-04T03:29:29.326Z,73.24
2023-04-04T03:30:29.392Z,78.18
2023-04-04T03:31:29.398Z,74.83
2023-04-04T03:32:29.421Z,77.84
2023-04-04T03:33:29.409Z,82.08
2023-04-04T03:34:29.463Z,74.91
2023-04-04T03:35:29.499Z,73.50
2023-04-04T03:36:29.505Z,75.66
2023-04-04T03:37:29.511Z,75.37
2023-04-04T03:38:29.540Z,77.40
2023-04-04T03:39:29.602Z,73.32
2023-04-04T03:40:29.619Z,74.72
2023-04-04T03:41:29.618Z,72.86
2023-04-04T03:42:29.648Z,74.33
2023-04-04T03:43:29.677Z,75.07
2023-04-04T03:44:29.703Z,75.30
2023-04-04T03:45:29.732Z,76.25
2023-04-04T03:46:29.890Z,78.85
2023-04-04T03:47:29.764Z,78.39
2023-04-04T03:48:29.752Z,74.22
2023-04-04T03:49:29.772Z,74.38
2023-04-04T03:50:29.823Z,77.45
2023-04-04T03:51:29.835Z,76.29
2023-04-04T03:52:29.865Z,78.16
2023-04-04T03:53:29.895Z,78.58
2023-04-04T03:54:29.920Z,77.66
2023-04-04T03:55:29.920Z,77.74
2023-04-04T03:56:29.965Z,84.76
2023-04-04T03:57:29.961Z,85.08
2023-04-04T03:58:29.992Z,84.24
2023-04-04T03:59:30.100Z,88.54
2023-04-04T04:00:30.056Z,80.77
2023-04-04T04:01:30.112Z,85.53
2023-04-04T04:02:30.194Z,76.52
2023-04-04T04:03:30.309Z,79.70
2023-04-04T04:04:30.253Z,87.04
2023-04-04T04:05:30.178Z,81.88
2023-04-04T04:06:30.191Z,78.60
2023-04-04T04:07:30.225Z,80.28
2023-04-04T04:08:30.253Z,79.82
2023-04-04T04:09:30.203Z,82.06
2023-04-04T04:10:30.272Z,77.49
2023-04-04T04:11:30.253Z,83.81
2023-04-04T04:12:30.292Z,81.18
2023-04-04T04:13:30.309Z,82.17
2023-04-04T04:14:30.297Z,85.76
2023-04-04T04:15:30.320Z,82.99
2023-04-04T04:16:30.462Z,84.22
2023-04-04T04:17:30.365Z,82.47
2023-04-04T04:18:30.380Z,85.06
2023-04-04T04:19:30.416Z,83.11
2023-04-04T04:20:30.419Z,87.05
2023-04-04T04:21:30.468Z,97.79
2023-04-04T04:22:30.455Z,89.36
2023-04-04T04:23:30.494Z,91.50
2023-04-04T04:24:30.554Z,91.79
2023-04-04T04:25:30.599Z,94.90
2023-04-04T04:26:30.653Z,95.16
2023-04-04T04:27:30.684Z,94.56
2023-04-04T04:28:33.878Z,94.21
2023-04-04T04:29:31.408Z,96.47
2023-04-04T04:30:30.723Z,99.68
2023-04-04T04:31:30.693Z,101.40
2023-04-04T04:32:30.712Z,96.61
2023-04-04T04:33:30.690Z,97.71
2023-04-04T04:34:30.690Z,100.37
2023-04-04T04:35:30.710Z,104.07
2023-04-04T04:36:30.730Z,111.83
2023-04-04T04:37:30.670Z,111.07
2023-04-04T04:38:30.680Z,110.75
2023-04-04T04:39:30.640Z,109.52
2023-04-04T04:40:30.684Z,112.40
2023-04-04T04:41:30.678Z,122.62
2023-04-04T04:42:30.632Z,144.47
2023-04-04T04:43:30.640Z,139.38
2023-04-04T04:44:30.644Z,130.36
2023-04-04T04:45:30.618Z,143.54
2023-04-04T04:46:30.676Z,149.51
2023-04-04T04:47:30.634Z,151.38
2023-04-04T04:48:30.571Z,160.17
2023-04-04T04:49:30.605Z,165.38
2023-04-04T04:50:30.597Z,167.60
2023-04-04T04:51:30.564Z,169.96
2023-04-04T04:52:30.575Z,165.22
2023-04-04T04:53:30.567Z,153.39
2023-04-04T04:54:30.600Z,160.63
2023-04-04T04:55:30.554Z,159.82
2023-04-04T04:56:30.527Z,162.44
2023-04-04T04:57:30.529Z,161.02
2023-04-04T04:58:30.513Z,158.18
2023-04-04T04:59:30.557Z,159.65
2023-04-04T05:02:00.052Z,25.00
2023-04-04T05:02:49.494Z,25.00
2023-04-04T05:03:51.222Z,25.00
2023-04-04T05:04:49.372Z,25.00
2023-04-04T05:05:49.349Z,25.00
2023-04-04T05:06:49.437Z,25.00
2023-04-04T05:07:49.382Z,25.00
2023-04-04T05:08:49.365Z,26.04
2023-04-04T05:09:49.327Z,26.77
2023-04-04T05:10:49.328Z,27.12
2023-04-04T05:11:49.392Z,27.37
2023-04-04T05:12:49.291Z,34.32
2023-04-04T05:13:49.312Z,33.92
2023-04-04T05:14:49.282Z,30.82
2023-04-04T05:15:49.279Z,36.05
2023-04-04T05:16:49.366Z,35.66
2023-04-04T05:17:49.314Z,29.01
2023-04-04T05:18:49.276Z,37.67
2023-04-04T05:19:49.293Z,30.04
2023-04-04T05:20:49.245Z,33.04
2023-04-04T05:21:49.257Z,41.51
2023-04-04T05:22:51.100Z,34.50
2023-04-04T05:23:49.241Z,35.47
2023-04-04T05:24:49.266Z,40.29
2023-04-04T05:25:49.319Z,41.13
2023-04-04T05:26:49.403Z,44.06
2023-04-04T05:27:49.452Z,43.13
2023-04-04T05:28:49.467Z,45.66
2023-04-04T05:29:49.518Z,46.38
2023-04-04T05:30:49.574Z,41.21
2023-04-04T05:31:49.692Z,40.66
2023-04-04T05:32:49.673Z,38.89
2023-04-04T05:33:49.665Z,43.08
2023-04-04T05:34:49.734Z,42.52
2023-04-04T05:35:49.886Z,26.61
2023-04-04T05:36:49.836Z,36.02
2023-04-04T05:37:49.869Z,36.60
2023-04-04T05:38:50.013Z,26.48
2023-04-04T05:39:49.973Z,31.50
2023-04-04T05:40:49.993Z,25.00
2023-04-04T05:41:50.057Z,31.21
2023-04-04T05:42:50.116Z,57.87
2023-04-04T05:43:50.119Z,70.94
2023-04-04T05:44:50.206Z,75.34
2023-04-04T05:47:16.739Z,25.00
2023-04-04T05:48:09.093Z,25.00
2023-04-04T05:49:09.065Z,25.00
2023-04-04T05:50:09.094Z,25.00
2023-04-04T05:51:09.874Z,25.00
2023-04-04T05:52:09.099Z,25.00
2023-04-04T05:53:09.041Z,28.79
2023-04-04T05:54:09.013Z,27.05
2023-04-04T05:55:09.059Z,34.23
2023-04-04T05:56:09.072Z,31.25
2023-04-04T05:57:09.077Z,31.03
2023-04-04T05:58:09.493Z,27.49
2023-04-04T05:59:09.212Z,28.14
2023-04-04T06:00:09.173Z,25.00
2023-04-04T06:01:09.287Z,27.63
2023-04-04T06:02:09.334Z,32.83
2023-04-04T06:03:09.331Z,29.57
2023-04-04T06:04:09.384Z,25.73
2023-04-04T06:05:09.408Z,28.03
2023-04-04T06:06:09.483Z,27.87
2023-04-04T06:07:09.515Z,25.87
2023-04-04T06:08:09.514Z,28.23
2023-04-04T06:09:09.586Z,26.66
2023-04-04T06:10:09.641Z,24.90
2023-04-04T06:11:09.675Z,33.82
2023-04-04T06:12:10.083Z,52.43
2023-04-04T06:13:09.760Z,61.05
2023-04-04T06:14:10.067Z,60.14
2023-04-04T06:15:09.863Z,61.45
2023-04-04T06:16:10.231Z,64.18
2023-04-04T06:17:09.928Z,63.52
2023-04-04T06:18:10.057Z,61.82
2023-04-04T06:19:10.085Z,65.17
2023-04-04T06:20:10.078Z,64.76
2023-04-04T06:21:10.112Z,60.63
2023-04-04T06:22:10.167Z,66.19
2023-04-04T06:23:10.289Z,66.61
2023-04-04T06:24:10.311Z,70.45
2023-04-04T06:25:10.304Z,64.55
2023-04-04T06:26:10.365Z,60.47
2023-04-04T06:27:10.346Z,61.26
2023-04-04T06:28:10.492Z,60.64
2023-04-04T06:29:10.527Z,63.10
2023-04-04T06:30:11.979Z,60.51
2023-04-04T06:31:10.623Z,62.82
2023-04-04T06:32:11.216Z,62.08
2023-04-04T06:33:10.638Z,66.08
2023-04-04T06:34:10.710Z,62.64
2023-04-04T06:35:10.743Z,57.12
2023-04-04T06:36:10.873Z,59.06
2023-04-04T06:37:10.859Z,60.35
2023-04-04T06:38:10.873Z,56.27
2023-04-04T06:39:10.913Z,58.34
2023-04-04T06:40:10.987Z,56.59
2023-04-04T06:41:11.019Z,60.63
2023-04-04T06:42:11.078Z,63.86
2023-04-04T06:43:11.114Z,59.50
2023-04-04T06:44:11.205Z,61.75
2023-04-04T06:45:11.220Z,64.57
2023-04-04T06:46:11.237Z,60.26
2023-04-04T06:47:11.327Z,61.46
2023-04-04T06:48:11.443Z,61.61
2023-04-04T06:49:11.386Z,62.50
2023-04-04T06:50:11.388Z,57.60
2023-04-04T06:51:11.477Z,59.15
2023-04-04T06:52:11.506Z,61.77
2023-04-04T06:53:11.627Z,63.08
2023-04-04T06:54:11.607Z,62.06
2023-04-04T06:55:11.649Z,62.59
2023-04-04T06:56:11.680Z,62.85
2023-04-04T06:57:11.764Z,61.62
2023-04-04T06:58:11.746Z,64.03
2023-04-04T06:59:11.854Z,68.85
2023-04-04T07:00:11.876Z,64.04
2023-04-04T07:01:11.938Z,65.92
2023-04-04T07:02:11.963Z,64.78
2023-04-04T07:03:12.060Z,66.23
2023-04-04T07:04:12.061Z,67.71
2023-04-04T07:05:12.098Z,68.82
2023-04-04T07:06:12.166Z,69.12
2023-04-04T07:07:12.210Z,66.40
2023-04-04T07:08:12.248Z,69.75
2023-04-04T07:09:21.852Z,70.62
2023-04-04T07:10:13.265Z,70.66
2023-04-04T07:11:12.252Z,70.16
2023-04-04T07:12:12.259Z,71.54
2023-04-04T07:13:12.380Z,72.82
2023-04-04T07:15:42.077Z,25.00
2023-04-04T07:16:31.183Z,25.00
2023-04-04T07:17:31.059Z,25.00
2023-04-04T07:18:31.057Z,25.00
2023-04-04T07:19:31.055Z,25.00
2023-04-04T07:20:31.050Z,25.00
2023-04-04T07:21:31.026Z,27.24
2023-04-04T07:22:30.994Z,27.25
2023-04-04T07:23:31.049Z,26.72
2023-04-04T07:24:31.011Z,26.44
2023-04-04T07:25:31.056Z,25.01
2023-04-04T07:26:31.096Z,29.92
2023-04-04T07:27:31.173Z,32.19
2023-04-04T07:28:31.181Z,27.83
2023-04-04T07:29:31.224Z,28.90
2023-04-04T07:30:31.285Z,28.10
2023-04-04T07:31:31.329Z,30.75
2023-04-04T07:32:31.433Z,30.62
2023-04-04T07:33:31.420Z,25.63
2023-04-04T07:34:31.470Z,25.94
2023-04-04T07:35:31.531Z,26.87
2023-04-04T07:36:31.550Z,25.47
2023-04-04T07:37:31.597Z,35.80
2023-04-04T07:38:31.663Z,50.10
2023-04-04T07:39:31.659Z,49.35
2023-04-04T07:40:31.678Z,47.10
2023-04-04T07:41:31.714Z,44.47
2023-04-04T07:42:31.793Z,36.61
2023-04-04T07:43:31.817Z,30.17
2023-04-04T07:44:31.871Z,33.14
2023-04-04T07:45:31.903Z,32.55
2023-04-04T07:46:32.031Z,35.27
2023-04-04T07:47:32.000Z,38.37
2023-04-04T07:48:32.023Z,39.20
2023-04-04T07:49:32.069Z,36.56
2023-04-04T07:50:32.080Z,34.42
2023-04-04T07:51:32.148Z,36.90
2023-04-04T07:52:32.195Z,34.62
2023-04-04T07:53:32.228Z,35.17
2023-04-04T07:54:32.271Z,33.04
2023-04-04T07:55:32.286Z,31.03
2023-04-04T07:56:32.338Z,28.96
2023-04-04T07:57:32.325Z,26.07
2023-04-04T07:58:32.397Z,30.71
2023-04-04T07:59:32.460Z,36.50
2023-04-04T08:00:32.457Z,42.03
2023-04-04T08:01:40.134Z,42.38
2023-04-04T08:02:32.520Z,42.49
2023-04-04T08:03:32.575Z,43.06
2023-04-04T08:04:32.493Z,42.58
2023-04-04T08:05:32.454Z,37.54
2023-04-04T08:06:32.453Z,40.81
2023-04-04T08:07:32.457Z,46.78
2023-04-04T08:08:32.430Z,43.55
2023-04-04T08:09:32.415Z,43.67
2023-04-04T08:10:32.423Z,47.47
2023-04-04T08:11:32.413Z,49.72
2023-04-04T08:12:32.391Z,45.46
2023-04-04T08:13:32.400Z,39.41
2023-04-04T08:14:32.400Z,39.71
2023-04-04T08:15:32.425Z,37.86
2023-04-04T08:16:32.394Z,23.31
2023-04-04T08:17:32.392Z,33.05
2023-04-04T08:18:32.434Z,43.95
2023-04-04T08:19:32.424Z,51.25
2023-04-04T08:20:32.516Z,59.62
2023-04-04T08:21:32.501Z,60.35
2023-04-04T08:22:32.589Z,54.02
2023-04-04T08:23:32.588Z,45.75
2023-04-04T08:24:32.628Z,45.12
2023-04-04T08:25:32.654Z,47.89
2023-04-04T08:26:32.654Z,53.03
2023-04-04T08:27:32.697Z,49.64
2023-04-04T08:28:32.745Z,47.78
2023-04-04T08:29:32.780Z,48.40
2023-04-04T08:30:32.778Z,50.61
2023-04-04T08:31:32.837Z,53.92
2023-04-04T08:32:32.832Z,50.70
2023-04-04T08:33:44.595Z,44.89
2023-04-04T08:34:33.871Z,45.26
2023-04-04T08:35:32.913Z,47.59
2023-04-04T08:36:32.854Z,53.16
2023-04-04T08:37:32.861Z,61.77
2023-04-04T08:38:32.873Z,78.94
2023-04-04T08:39:32.832Z,79.59
2023-04-04T08:40:33.846Z,77.53
2023-04-04T08:41:33.285Z,79.37
2023-04-04T08:42:32.823Z,64.26
2023-04-04T08:43:32.808Z,66.59
2023-04-04T08:44:32.813Z,64.54
2023-04-04T08:45:32.783Z,68.09
2023-04-04T08:46:32.877Z,62.60
2023-04-04T08:47:32.788Z,54.10
2023-04-04T08:48:32.791Z,36.44
2023-04-04T08:49:32.746Z,25.00
2023-04-04T08:50:32.749Z,35.17
2023-04-04T08:51:32.802Z,40.56
2023-04-04T08:52:32.795Z,33.68
2023-04-04T08:53:32.887Z,24.04
2023-04-04T08:54:32.917Z,26.83
2023-04-04T08:55:32.892Z,27.15
2023-04-04T08:56:33.190Z,25.19
2023-04-04T08:57:32.916Z,29.70
2023-04-04T08:58:32.963Z,27.57
2023-04-04T08:59:33.126Z,25.31
2023-04-04T09:00:33.037Z,27.67
2023-04-04T09:01:34.297Z,27.91
2023-04-04T09:02:33.214Z,30.14
2023-04-04T09:03:33.181Z,29.54
2023-04-04T09:04:33.117Z,29.28
2023-04-04T09:05:33.124Z,35.32
2023-04-04T09:06:33.145Z,31.01
2023-04-04T09:07:33.189Z,31.15
2023-04-04T09:08:33.254Z,31.38
2023-04-04T09:09:33.258Z,33.58
2023-04-04T09:10:33.259Z,39.00
2023-04-04T09:11:33.343Z,47.45
2023-04-04T09:12:33.315Z,52.24
2023-04-04T09:13:33.398Z,48.09
2023-04-04T09:14:33.386Z,50.60
2023-04-04T09:15:33.368Z,48.54
2023-04-04T09:16:33.578Z,44.32
2023-04-04T09:17:33.490Z,50.55
2023-04-04T09:18:33.469Z,49.47
2023-04-04T09:19:33.526Z,49.63
2023-04-04T09:20:33.532Z,41.91
2023-04-04T09:21:33.853Z,41.23
2023-04-04T09:22:33.593Z,38.80
2023-04-04T09:23:33.616Z,40.91
2023-04-04T09:24:33.604Z,42.86
2023-04-04T09:25:33.669Z,41.25
2023-04-04T09:26:33.679Z,41.41
2023-04-04T09:27:33.681Z,37.48
2023-04-04T09:28:33.748Z,35.58
2023-04-04T09:29:33.757Z,37.69
2023-04-04T09:30:33.760Z,35.05
2023-04-04T09:31:33.823Z,35.84
2023-04-04T09:32:33.849Z,42.07
2023-04-04T09:33:33.860Z,39.33
2023-04-04T09:34:33.884Z,36.43
2023-04-04T09:35:33.943Z,34.99
2023-04-04T09:36:33.960Z,34.95
2023-04-04T09:37:33.948Z,34.26
2023-04-04T09:38:34.078Z,37.58
2023-04-04T09:39:34.016Z,39.73
2023-04-04T09:40:34.089Z,34.16
2023-04-04T09:41:34.028Z,36.48
2023-04-04T09:42:34.090Z,30.12
2023-04-04T09:43:35.655Z,36.26
2023-04-04T09:44:34.134Z,40.17
2023-04-04T09:45:34.114Z,44.01
2023-04-04T09:46:34.176Z,41.23
2023-04-04T09:47:34.239Z,41.11
2023-04-04T09:48:34.191Z,35.25
2023-04-04T09:49:34.212Z,45.02
2023-04-04T09:50:34.258Z,47.40
2023-04-04T09:51:34.262Z,48.04
2023-04-04T09:52:34.268Z,52.59
2023-04-04T09:53:34.276Z,52.17
2023-04-04T09:54:34.795Z,60.13
2023-04-04T09:55:34.361Z,60.68
2023-04-04T09:56:34.304Z,57.35
2023-04-04T09:57:34.367Z,49.09
2023-04-04T09:58:34.357Z,51.47
2023-04-04T09:59:34.415Z,48.64
2023-04-04T10:00:34.375Z,49.19
2023-04-04T10:01:34.464Z,57.71
2023-04-04T10:02:34.484Z,54.31
2023-04-04T10:03:34.447Z,58.76
2023-04-04T10:04:34.541Z,58.15
2023-04-04T10:05:34.465Z,59.22
2023-04-04T10:06:34.503Z,60.76
2023-04-04T10:07:34.536Z,60.01
2023-04-04T10:08:34.555Z,60.29
2023-04-04T10:09:34.563Z,58.58
2023-04-04T10:10:34.586Z,53.30
2023-04-04T10:11:34.576Z,58.21
2023-04-04T10:12:34.666Z,54.02
2023-04-04T10:13:34.651Z,53.89
2023-04-04T10:14:34.670Z,52.42
2023-04-04T10:15:34.692Z,56.90
2023-04-04T10:16:34.727Z,56.65
2023-04-04T10:17:34.698Z,56.34
2023-04-04T10:18:34.732Z,54.90
2023-04-04T10:19:34.766Z,55.95
2023-04-04T10:20:34.764Z,51.99
2023-04-04T10:21:34.745Z,58.43
2023-04-04T10:22:34.781Z,56.65
2023-04-04T10:23:34.847Z,0.00
2023-04-04T10:24:34.808Z,0.00
2023-04-04T10:25:34.803Z,0.00
2023-04-04T10:26:34.859Z,0.00
2023-04-04T10:27:34.916Z,0.00
2023-04-04T10:28:34.921Z,0.00
2023-04-04T10:29:34.942Z,0.00
2023-04-04T10:30:34.946Z,0.00
2023-04-04T10:31:35.044Z,0.00
2023-04-04T10:32:35.062Z,0.00
2023-04-04T10:33:35.025Z,0.00
2023-04-04T10:34:35.007Z,3.17
2023-04-04T10:35:34.987Z,84.88
2023-04-04T10:36:35.030Z,111.77
2023-04-04T10:37:35.100Z,131.77
2023-04-04T10:38:35.203Z,147.49
2023-04-04T10:39:35.510Z,143.36
2023-04-04T10:40:35.255Z,140.92
2023-04-04T10:41:35.328Z,137.74
2023-04-04T10:42:35.388Z,138.14
2023-04-04T10:43:35.413Z,149.76
2023-04-04T10:44:35.447Z,167.41
2023-04-04T10:45:35.456Z,190.35
2023-04-04T10:46:35.563Z,214.56
2023-04-04T10:47:35.563Z,229.68
2023-04-04T10:48:35.640Z,243.43
2023-04-04T10:49:35.670Z,248.55
2023-04-04T10:50:35.669Z,249.10
2023-04-04T10:51:45.142Z,250.00
2023-04-04T10:52:36.735Z,250.49
2023-04-04T10:53:35.716Z,252.77
2023-04-04T10:54:35.684Z,260.95
2023-04-04T10:55:35.776Z,271.09
2023-04-04T10:56:35.670Z,292.34
2023-04-04T10:57:35.718Z,269.26
2023-04-04T10:58:35.695Z,250.00
2023-04-04T10:59:35.702Z,250.00
2023-04-04T11:00:35.664Z,250.00
2023-04-04T11:01:35.675Z,248.30
2023-04-04T11:02:35.700Z,249.11
2023-04-04T11:03:35.723Z,248.58
2023-04-04T11:04:35.872Z,250.00
2023-04-04T11:05:35.628Z,249.80
2023-04-04T11:06:35.649Z,248.73
2023-04-04T11:07:35.658Z,248.44
2023-04-04T11:08:35.577Z,249.02
2023-04-04T11:09:35.667Z,248.53
2023-04-04T11:10:35.579Z,249.40
2023-04-04T11:11:35.601Z,249.62
2023-04-04T11:12:35.681Z,250.00
2023-04-04T11:13:35.676Z,248.17
2023-04-04T11:14:35.703Z,250.43
2023-04-04T11:15:35.833Z,249.62
2023-04-04T11:16:35.817Z,248.27
2023-04-04T11:17:35.775Z,249.93
2023-04-04T11:18:35.784Z,248.91
2023-04-04T11:19:35.767Z,248.98
2023-04-04T11:20:35.768Z,248.93
2023-04-04T11:21:35.776Z,248.35
2023-04-04T11:22:35.818Z,249.27
2023-04-04T11:23:35.818Z,249.51
2023-04-04T11:24:35.867Z,247.33
2023-04-04T11:25:35.868Z,250.00
2023-04-04T11:26:35.841Z,246.18
2023-04-04T11:27:35.939Z,249.79
2023-04-04T11:28:35.916Z,249.50
2023-04-04T11:29:35.938Z,249.09
2023-04-04T11:30:35.955Z,249.52
2023-04-04T11:31:36.122Z,250.00
2023-04-04T11:32:35.977Z,248.35
2023-04-04T11:33:35.994Z,247.92
2023-04-04T11:34:36.037Z,248.81
2023-04-04T11:35:36.135Z,249.13
2023-04-04T11:36:36.071Z,249.65
2023-04-04T11:37:36.056Z,245.90
2023-04-04T11:38:36.063Z,250.00
2023-04-04T11:39:36.097Z,246.97
2023-04-04T11:40:36.099Z,249.49
2023-04-04T11:41:36.136Z,249.01
2023-04-04T11:43:54.939Z,25.00
2023-04-04T11:44:54.949Z,25.00
2023-04-04T11:45:54.989Z,25.00
2023-04-04T11:46:55.015Z,25.00
2023-04-04T11:47:54.962Z,25.00
2023-04-04T11:48:55.001Z,28.01
2023-04-04T11:49:54.894Z,26.02
2023-04-04T11:50:54.866Z,31.02
2023-04-04T11:51:54.889Z,27.35
2023-04-04T11:52:54.903Z,36.28
2023-04-04T11:53:54.901Z,40.43
2023-04-04T11:54:54.875Z,45.34
2023-04-04T11:55:54.862Z,46.23
2023-04-04T11:56:54.812Z,44.88
2023-04-04T11:57:54.867Z,41.01
2023-04-04T11:59:08.766Z,42.76
2023-04-04T11:59:55.903Z,41.34
2023-04-04T12:00:54.820Z,40.95
2023-04-04T12:01:54.785Z,41.19
2023-04-04T12:02:54.856Z,42.04
2023-04-04T12:03:54.788Z,45.62
2023-04-04T12:04:54.878Z,42.96
2023-04-04T12:05:54.883Z,38.16
2023-04-04T12:06:54.788Z,36.35
2023-04-04T12:07:54.746Z,36.24
2023-04-04T12:08:54.776Z,29.92
2023-04-04T12:09:56.264Z,31.77
2023-04-04T12:10:55.525Z,31.74
2023-04-04T12:11:54.960Z,27.76
2023-04-04T12:12:54.958Z,28.02
2023-04-04T12:13:54.985Z,28.12
2023-04-04T12:15:03.133Z,35.14
2023-04-04T12:15:56.286Z,35.21
2023-04-04T12:16:54.972Z,36.10
2023-04-04T12:17:54.941Z,38.62
2023-04-04T12:18:54.965Z,39.67
2023-04-04T12:19:54.984Z,46.97
2023-04-04T12:20:54.933Z,42.26
2023-04-04T12:21:54.916Z,43.40
2023-04-04T12:22:54.919Z,44.39
2023-04-04T12:23:54.946Z,44.10
2023-04-04T12:24:54.931Z,47.44
2023-04-04T12:25:54.998Z,39.87
2023-04-04T12:26:54.905Z,41.13
2023-04-04T12:27:54.872Z,39.42
2023-04-04T12:28:54.899Z,38.32
2023-04-04T12:29:54.933Z,40.35
2023-04-04T12:30:54.906Z,1.58
2023-04-04T12:31:54.985Z,0.65
2023-04-04T12:32:54.968Z,25.00
2023-04-04T12:33:54.940Z,77.81
2023-04-04T12:34:54.985Z,106.99
2023-04-04T12:35:55.105Z,124.64
2023-04-04T12:36:55.018Z,134.18
2023-04-04T12:37:55.033Z,137.40
2023-04-04T12:38:55.076Z,137.54
2023-04-04T12:39:55.682Z,123.83
2023-04-04T12:40:55.121Z,106.39
2023-04-04T12:41:55.126Z,89.48
2023-04-04T12:42:55.156Z,78.84
2023-04-04T12:43:55.106Z,69.92
2023-04-04T12:44:55.174Z,69.23
2023-04-04T12:45:55.155Z,65.44
2023-04-04T12:46:55.145Z,77.55
2023-04-04T12:47:55.217Z,94.52
2023-04-04T12:48:55.201Z,113.65
2023-04-04T12:49:55.245Z,124.95
2023-04-04T12:50:55.188Z,129.75
2023-04-04T12:51:55.225Z,131.67
2023-04-04T12:53:00.256Z,135.07
2023-04-04T12:53:56.281Z,135.15
2023-04-04T12:55:06.570Z,135.42